Time;durP1;ratioP1;P1;durP2;ratioP2;P2;SDS_P1;SDS_P2;PMS_P1;PMS_P2;Temp;Humidity;BMP_temperature;BMP_pressure;BME280_temperature;BME280_humidity;BME280_pressure;Samples;Min_cycle;Max_cycle;Signal;HPM_P1;HPM_P2
2022/03/17 00:01:33;;;;;;;23.17;18.70;;;;;;;;;;4976205;28;20035;-88
2022/03/17 00:03:59;;;;;;;23.27;18.40;;;;;;;;;;4957285;28;20038;-88
2022/03/17 00:06:25;;;;;;;23.33;18.48;;;;;;;;;;4941109;28;20043;-89
2022/03/17 00:08:51;;;;;;;24.23;19.63;;;;;;;;;;4973055;28;20125;-90
2022/03/17 00:11:17;;;;;;;26.25;20.02;;;;;;;;;;4978013;28;20149;-88
2022/03/17 00:13:43;;;;;;;24.63;19.67;;;;;;;;;;4979827;28;20057;-88
2022/03/17 00:16:10;;;;;;;23.15;18.65;;;;;;;;;;4979394;28;20672;-88
2022/03/17 00:18:37;;;;;;;24.67;19.73;;;;;;;;;;4963465;28;20652;-88
2022/03/17 00:21:03;;;;;;;24.35;19.08;;;;;;;;;;4979489;28;20064;-89
2022/03/17 00:23:29;;;;;;;25.35;20.08;;;;;;;;;;4970447;28;20039;-89
2022/03/17 00:25:55;;;;;;;26.55;19.70;;;;;;;;;;4960150;28;20047;-88
2022/03/17 00:28:21;;;;;;;26.15;20.27;;;;;;;;;;4978221;28;20100;-89
2022/03/17 00:30:47;;;;;;;25.00;19.85;;;;;;;;;;4977287;28;20074;-88
2022/03/17 00:33:13;;;;;;;26.15;20.30;;;;;;;;;;4963741;28;20043;-89
2022/03/17 00:35:42;;;;;;;24.13;20.05;;;;;;;;;;4964892;28;20038;-90
2022/03/17 00:38:09;;;;;;;26.20;20.23;;;;;;;;;;4976134;28;20412;-89
2022/03/17 00:40:36;;;;;;;25.67;20.35;;;;;;;;;;4944049;28;20050;-88
2022/03/17 00:43:03;;;;;;;24.67;19.90;;;;;;;;;;4960000;28;20485;-89
2022/03/17 00:45:29;;;;;;;28.35;20.27;;;;;;;;;;4961452;28;20047;-89
2022/03/17 00:47:55;;;;;;;26.83;19.58;;;;;;;;;;4945089;28;20489;-88
2022/03/17 00:50:22;;;;;;;27.45;19.75;;;;;;;;;;4979047;28;20045;-88
2022/03/17 00:52:48;;;;;;;25.35;19.42;;;;;;;;;;4978678;28;20104;-89
2022/03/17 00:55:14;;;;;;;26.80;19.98;;;;;;;;;;4979036;28;20481;-89
2022/03/17 00:57:41;;;;;;;22.42;18.95;;;;;;;;;;4967544;28;20417;-89
2022/03/17 01:00:08;;;;;;;28.00;20.15;;;;;;;;;;4960041;28;20035;-89
2022/03/17 01:02:34;;;;;;;27.08;20.48;;;;;;;;;;4960119;28;20034;-89
2022/03/17 01:07:28;;;;;;;25.60;20.40;;;;;;;;;;4994984;28;20522;-87
2022/03/17 01:09:54;;;;;;;26.27;19.98;;;;;;;;;;4962738;28;20121;-88
2022/03/17 01:12:20;;;;;;;28.27;21.90;;;;;;;;;;4962792;28;20043;-89
2022/03/17 01:14:47;;;;;;;25.23;20.85;;;;;;;;;;4978880;28;20569;-89
2022/03/17 01:17:13;;;;;;;24.90;20.33;;;;;;;;;;4978568;28;20042;-89
2022/03/17 01:19:39;;;;;;;25.95;21.80;;;;;;;;;;4977834;28;20172;-89
2022/03/17 01:22:05;;;;;;;27.25;20.65;;;;;;;;;;4978408;28;20042;-89
2022/03/17 01:24:31;;;;;;;25.73;20.88;;;;;;;;;;4978226;28;20042;-88
2022/03/17 01:26:57;;;;;;;25.77;19.45;;;;;;;;;;4969370;28;20038;-89
2022/03/17 01:29:23;;;;;;;27.27;21.25;;;;;;;;;;4943252;28;20109;-89
2022/03/17 01:31:50;;;;;;;24.83;20.00;;;;;;;;;;4966870;28;20104;-89
2022/03/17 01:34:17;;;;;;;24.02;20.52;;;;;;;;;;4977882;28;20050;-89
2022/03/17 01:36:43;;;;;;;26.73;20.65;;;;;;;;;;4966004;28;20050;-89
2022/03/17 01:39:09;;;;;;;26.00;20.60;;;;;;;;;;4958799;28;20047;-88
2022/03/17 01:41:35;;;;;;;24.30;19.70;;;;;;;;;;4967067;28;20038;-89
2022/03/17 01:44:01;;;;;;;26.35;21.02;;;;;;;;;;4978150;28;20396;-88
2022/03/17 01:46:27;;;;;;;27.75;20.33;;;;;;;;;;4977752;28;20046;-89
2022/03/17 01:48:53;;;;;;;26.58;21.45;;;;;;;;;;4977834;28;20393;-89
2022/03/17 01:51:19;;;;;;;24.92;19.75;;;;;;;;;;4969685;28;20050;-89
2022/03/17 01:53:45;;;;;;;25.23;20.20;;;;;;;;;;4958445;28;20409;-89
2022/03/17 01:56:11;;;;;;;24.85;19.17;;;;;;;;;;4966566;28;20046;-88
2022/03/17 01:58:37;;;;;;;25.90;19.92;;;;;;;;;;4976932;28;20492;-88
2022/03/17 02:01:03;;;;;;;24.80;20.02;;;;;;;;;;4977456;28;20047;-89
2022/03/17 02:03:29;;;;;;;25.40;19.40;;;;;;;;;;4977576;28;20061;-89
2022/03/17 02:05:56;;;;;;;24.40;19.38;;;;;;;;;;4968985;28;20117;-89
2022/03/17 02:08:22;;;;;;;27.58;20.55;;;;;;;;;;4942112;28;20057;-89
2022/03/17 02:13:32;;;;;;;23.98;20.20;;;;;;;;;;4976412;28;20054;-88
2022/03/17 02:16:02;;;;;;;29.35;20.13;;;;;;;;;;4969896;28;20050;-89
2022/03/17 02:18:28;;;;;;;25.55;20.33;;;;;;;;;;4976957;28;20535;-89
2022/03/17 02:20:59;;;;;;;24.15;20.48;;;;;;;;;;4977438;28;20046;-89
2022/03/17 02:26:09;;;;;;;26.38;19.80;;;;;;;;;;4979267;28;20046;-89
2022/03/17 02:28:35;;;;;;;24.73;20.45;;;;;;;;;;4961265;28;20038;-88
2022/03/17 02:31:02;;;;;;;25.63;20.15;;;;;;;;;;4976875;28;20049;-88
2022/03/17 02:33:27;;;;;;;24.48;20.58;;;;;;;;;;4976876;28;20109;-88
2022/03/17 02:35:54;;;;;;;23.55;20.25;;;;;;;;;;4977412;28;20046;-88
2022/03/17 02:38:20;;;;;;;24.88;20.83;;;;;;;;;;4977102;28;20133;-88
2022/03/17 02:40:48;;;;;;;25.20;20.90;;;;;;;;;;4968945;28;20046;-88
2022/03/17 02:43:14;;;;;;;24.00;19.58;;;;;;;;;;4976827;28;20050;-89
2022/03/17 02:45:40;;;;;;;24.75;21.00;;;;;;;;;;4976859;28;20445;-88
2022/03/17 02:48:07;;;;;;;25.15;20.55;;;;;;;;;;4976895;28;20042;-88
2022/03/17 02:50:34;;;;;;;25.80;20.30;;;;;;;;;;4960609;28;20488;-88
2022/03/17 02:53:05;;;;;;;24.55;20.10;;;;;;;;;;4976732;28;20056;-89
2022/03/17 02:55:32;;;;;;;27.00;21.42;;;;;;;;;;4960894;28;20046;-88
2022/03/17 02:57:57;;;;;;;26.33;20.40;;;;;;;;;;4976075;28;20034;-88
2022/03/17 03:00:23;;;;;;;26.42;21.58;;;;;;;;;;4975085;28;20042;-88
2022/03/17 03:02:49;;;;;;;26.27;21.38;;;;;;;;;;4976735;28;20137;-88
2022/03/17 03:05:15;;;;;;;26.10;20.95;;;;;;;;;;4972605;28;20039;-88
2022/03/17 03:07:41;;;;;;;25.38;21.25;;;;;;;;;;4951750;28;20042;-89
2022/03/17 03:10:08;;;;;;;26.13;21.52;;;;;;;;;;4968410;28;20061;-89
2022/03/17 03:12:34;;;;;;;28.42;21.50;;;;;;;;;;4953708;28;20046;-89
2022/03/17 03:15:00;;;;;;;25.20;21.60;;;;;;;;;;4967910;28;20130;-88
2022/03/17 03:17:27;;;;;;;25.67;22.45;;;;;;;;;;4941326;28;20131;-88
2022/03/17 03:19:53;;;;;;;26.83;21.58;;;;;;;;;;4972269;28;20424;-88
2022/03/17 03:22:19;;;;;;;24.25;20.20;;;;;;;;;;4971673;28;20081;-89
2022/03/17 03:24:45;;;;;;;26.98;21.25;;;;;;;;;;4971257;28;20117;-89
2022/03/17 03:27:11;;;;;;;27.80;21.17;;;;;;;;;;4976469;28;20061;-88
2022/03/17 03:29:37;;;;;;;24.92;20.95;;;;;;;;;;4976700;28;20514;-88
2022/03/17 03:32:04;;;;;;;23.60;19.73;;;;;;;;;;4976603;28;20057;-88
2022/03/17 03:34:30;;;;;;;27.75;22.98;;;;;;;;;;4960676;28;20488;-89
2022/03/17 03:39:41;;;;;;;26.52;21.77;;;;;;;;;;4976448;28;20046;-89
2022/03/17 03:42:08;;;;;;;26.15;22.08;;;;;;;;;;4960301;28;20035;-88
2022/03/17 03:44:34;;;;;;;26.45;22.17;;;;;;;;;;4979231;28;20047;-87
2022/03/17 03:47:00;;;;;;;25.17;21.33;;;;;;;;;;4980355;28;20038;-89
2022/03/17 03:49:26;;;;;;;26.05;22.00;;;;;;;;;;4980217;28;20056;-89
2022/03/17 03:51:52;;;;;;;27.38;22.80;;;;;;;;;;4973853;28;20062;-89
2022/03/17 03:54:19;;;;;;;25.58;21.70;;;;;;;;;;4965578;28;20038;-89
2022/03/17 03:56:46;;;;;;;27.45;22.48;;;;;;;;;;4986449;28;20046;-89
2022/03/17 03:59:20;;;;;;;26.63;21.20;;;;;;;;;;4982392;28;20038;-88
2022/03/17 04:01:46;;;;;;;25.30;22.25;;;;;;;;;;4981884;28;20055;-89
2022/03/17 04:04:17;;;;;;;25.48;22.02;;;;;;;;;;4979866;28;20122;-89
2022/03/17 04:06:45;;;;;;;25.67;22.50;;;;;;;;;;4979655;28;20495;-88
2022/03/17 04:09:12;;;;;;;25.17;20.85;;;;;;;;;;4970044;28;20051;-88
2022/03/17 04:11:38;;;;;;;26.20;23.17;;;;;;;;;;4975993;28;20046;-88
2022/03/17 04:14:05;;;;;;;26.27;22.50;;;;;;;;;;4963178;28;20117;-89
2022/03/17 04:16:31;;;;;;;27.13;23.25;;;;;;;;;;4987407;28;20066;-89
2022/03/17 04:18:57;;;;;;;26.55;23.17;;;;;;;;;;4979309;28;20048;-89
2022/03/17 04:21:23;;;;;;;28.35;23.17;;;;;;;;;;4973321;28;20050;-88
2022/03/17 04:23:50;;;;;;;28.73;25.63;;;;;;;;;;4975700;28;20135;-88
2022/03/17 04:26:16;;;;;;;32.53;26.15;;;;;;;;;;4965541;28;20046;-89
2022/03/17 04:28:42;;;;;;;30.08;25.13;;;;;;;;;;4963403;28;20038;-88
2022/03/17 04:31:09;;;;;;;28.73;24.02;;;;;;;;;;4963228;28;20042;-88
2022/03/17 04:33:35;;;;;;;32.33;26.05;;;;;;;;;;4979560;28;20756;-88
2022/03/17 04:36:05;;;;;;;31.63;26.90;;;;;;;;;;4970681;28;20043;-89
2022/03/17 04:38:32;;;;;;;34.05;28.50;;;;;;;;;;4979135;28;20050;-89
2022/03/17 04:40:58;;;;;;;33.45;28.33;;;;;;;;;;4979283;28;20042;-89
2022/03/17 04:43:24;;;;;;;35.45;29.25;;;;;;;;;;4976793;28;20045;-88
2022/03/17 04:45:50;;;;;;;36.08;30.83;;;;;;;;;;4979203;28;20046;-89
2022/03/17 04:48:16;;;;;;;34.70;28.67;;;;;;;;;;4979094;28;20566;-89
2022/03/17 04:50:42;;;;;;;40.80;33.70;;;;;;;;;;4963045;28;20053;-89
2022/03/17 04:53:27;;;;;;;37.50;30.88;;;;;;;;;;4979206;28;20046;-89
2022/03/17 04:55:53;;;;;;;34.67;29.80;;;;;;;;;;4961929;28;20101;-88
2022/03/17 04:58:19;;;;;;;38.58;33.15;;;;;;;;;;4983056;28;20038;-88
2022/03/17 05:00:45;;;;;;;40.38;33.35;;;;;;;;;;4973430;28;20100;-87
2022/03/17 05:03:11;;;;;;;38.90;33.25;;;;;;;;;;4978231;28;20088;-87
2022/03/17 05:05:38;;;;;;;38.22;31.92;;;;;;;;;;4979140;28;20085;-87
2022/03/17 05:08:06;;;;;;;41.63;35.20;;;;;;;;;;4973947;28;20108;-87
2022/03/17 05:10:35;;;;;;;41.75;33.03;;;;;;;;;;4977902;28;20068;-86
2022/03/17 05:13:01;;;;;;;42.33;32.95;;;;;;;;;;4978475;28;20065;-86
2022/03/17 05:15:27;;;;;;;43.83;33.70;;;;;;;;;;4977055;28;20042;-86
2022/03/17 05:17:53;;;;;;;46.15;34.50;;;;;;;;;;4958712;28;20051;-86
2022/03/17 05:20:19;;;;;;;48.65;38.50;;;;;;;;;;4965290;28;20045;-86
2022/03/17 05:22:45;;;;;;;45.92;35.53;;;;;;;;;;4975436;28;20046;-86
2022/03/17 05:25:11;;;;;;;48.25;35.58;;;;;;;;;;4977517;28;20448;-86
2022/03/17 05:27:38;;;;;;;44.65;32.53;;;;;;;;;;4961873;28;20038;-86
2022/03/17 05:30:05;;;;;;;21.95;17.75;;;;;;;;;;4975591;28;20484;-87
2022/03/17 05:32:32;;;;;;;13.70;11.57;;;;;;;;;;4977603;28;20569;-87
2022/03/17 05:34:58;;;;;;;9.63;7.80;;;;;;;;;;4976870;28;20049;-86
2022/03/17 05:37:24;;;;;;;8.02;6.55;;;;;;;;;;4977415;28;20050;-86
2022/03/17 05:39:50;;;;;;;8.63;6.88;;;;;;;;;;4977557;28;20550;-87
2022/03/17 05:42:17;;;;;;;7.20;6.50;;;;;;;;;;4977610;28;20153;-87
2022/03/17 05:44:43;;;;;;;7.00;6.38;;;;;;;;;;4977105;28;20085;-87
2022/03/17 05:47:09;;;;;;;6.95;6.35;;;;;;;;;;4977504;28;20049;-86
2022/03/17 05:49:35;;;;;;;7.20;6.50;;;;;;;;;;4973115;28;20045;-87
2022/03/17 05:52:01;;;;;;;8.18;7.32;;;;;;;;;;4976643;28;20042;-87
2022/03/17 05:54:27;;;;;;;7.43;6.68;;;;;;;;;;4977392;28;20034;-87
2022/03/17 05:56:53;;;;;;;7.75;6.95;;;;;;;;;;4977239;28;20046;-87
2022/03/17 05:59:19;;;;;;;7.47;6.72;;;;;;;;;;4977083;28;20464;-87
2022/03/17 06:01:45;;;;;;;7.90;7.20;;;;;;;;;;4975951;28;20039;-87
2022/03/17 06:04:11;;;;;;;10.18;7.55;;;;;;;;;;4976813;28;20066;-87
2022/03/17 06:06:37;;;;;;;9.18;7.25;;;;;;;;;;4959987;28;20054;-87
2022/03/17 06:09:03;;;;;;;11.90;8.93;;;;;;;;;;4977121;28;20053;-88
2022/03/17 06:11:29;;;;;;;11.50;9.13;;;;;;;;;;4960865;28;20121;-88
2022/03/17 06:13:56;;;;;;;10.68;9.05;;;;;;;;;;4960922;28;20050;-88
2022/03/17 06:16:23;;;;;;;14.93;9.50;;;;;;;;;;4976747;28;20046;-88
2022/03/17 06:18:49;;;;;;;15.35;9.48;;;;;;;;;;4975798;28;20069;-87
2022/03/17 06:21:15;;;;;;;15.80;9.88;;;;;;;;;;4976606;28;20053;-88
2022/03/17 06:23:43;;;;;;;14.27;8.15;;;;;;;;;;4976221;28;20473;-88
2022/03/17 06:26:09;;;;;;;14.43;9.60;;;;;;;;;;4976115;28;20046;-88
2022/03/17 06:28:34;;;;;;;13.55;9.25;;;;;;;;;;4976250;28;20407;-88
2022/03/17 06:31:01;;;;;;;15.55;10.00;;;;;;;;;;4975499;28;20042;-89
2022/03/17 06:33:29;;;;;;;13.48;8.98;;;;;;;;;;4976557;28;20046;-88
2022/03/17 06:35:55;;;;;;;14.63;8.88;;;;;;;;;;4988446;28;20046;-88
2022/03/17 06:38:21;;;;;;;11.73;7.15;;;;;;;;;;4974942;28;20480;-87
2022/03/17 06:40:47;;;;;;;10.48;7.57;;;;;;;;;;4975705;28;20117;-88
2022/03/17 06:43:14;;;;;;;13.55;7.53;;;;;;;;;;4984133;28;20049;-88
2022/03/17 06:45:41;;;;;;;14.57;7.50;;;;;;;;;;4976701;28;20400;-88
2022/03/17 06:48:07;;;;;;;10.73;7.07;;;;;;;;;;4977830;28;20054;-88
2022/03/17 06:50:33;;;;;;;12.70;7.25;;;;;;;;;;4984767;28;20152;-88
2022/03/17 06:52:59;;;;;;;14.02;6.57;;;;;;;;;;4976509;28;20424;-87
2022/03/17 06:55:25;;;;;;;11.25;6.05;;;;;;;;;;4974607;28;20049;-88
2022/03/17 06:57:51;;;;;;;10.55;6.10;;;;;;;;;;4975393;28;20122;-88
2022/03/17 07:00:18;;;;;;;12.55;6.07;;;;;;;;;;4958648;28;20040;-88
2022/03/17 07:02:44;;;;;;;12.52;5.22;;;;;;;;;;4974911;28;20365;-88
2022/03/17 07:05:10;;;;;;;10.32;5.25;;;;;;;;;;4974985;28;20042;-87
2022/03/17 07:07:37;;;;;;;11.40;5.00;;;;;;;;;;4975693;28;20137;-88
2022/03/17 07:10:05;;;;;;;13.43;5.20;;;;;;;;;;4959745;28;20632;-87
2022/03/17 07:12:31;;;;;;;8.35;4.18;;;;;;;;;;4974673;28;20050;-86
2022/03/17 07:14:57;;;;;;;7.40;3.83;;;;;;;;;;4975940;28;20518;-87
2022/03/17 07:17:24;;;;;;;9.48;3.60;;;;;;;;;;4982934;28;20045;-87
2022/03/17 07:22:28;;;;;;;12.65;3.10;;;;;;;;;;4985501;28;20130;-87
2022/03/17 07:24:54;;;;;;;;;;;;;;;;;;4990646;28;20050;-87
2022/03/17 07:27:24;;;;;;;6.35;2.80;;;;;;;;;;4979980;28;19918;-87
2022/03/17 07:29:50;;;;;;;6.55;2.22;;;;;;;;;;4966298;28;20492;-88
2022/03/17 07:32:16;;;;;;;8.05;2.35;;;;;;;;;;4970730;28;20050;-87
2022/03/17 07:34:42;;;;;;;12.52;2.63;;;;;;;;;;4963655;28;20050;-88
2022/03/17 07:37:08;;;;;;;8.60;2.35;;;;;;;;;;4964087;28;20038;-88
2022/03/17 07:39:34;;;;;;;9.45;2.50;;;;;;;;;;4980663;28;20057;-87
2022/03/17 07:42:00;;;;;;;11.10;2.28;;;;;;;;;;4980144;28;20042;-89
2022/03/17 07:44:28;;;;;;;8.15;2.10;;;;;;;;;;4980408;28;20038;-88
2022/03/17 07:46:54;;;;;;;7.55;2.25;;;;;;;;;;4980329;28;20053;-88
2022/03/17 07:49:20;;;;;;;8.63;1.95;;;;;;;;;;4980606;28;20050;-89
2022/03/17 07:51:46;;;;;;;6.15;1.80;;;;;;;;;;4980203;28;20042;-89
2022/03/17 07:54:12;;;;;;;5.88;1.90;;;;;;;;;;4980264;28;20054;-87
2022/03/17 07:56:38;;;;;;;6.22;2.53;;;;;;;;;;4979460;28;20053;-87
2022/03/17 07:59:05;;;;;;;8.48;1.75;;;;;;;;;;4970105;28;20034;-86
2022/03/17 08:01:31;;;;;;;7.20;1.90;;;;;;;;;;4979898;28;20034;-86
2022/03/17 08:03:57;;;;;;;9.65;1.85;;;;;;;;;;4977482;28;20045;-86
2022/03/17 08:06:24;;;;;;;9.70;1.75;;;;;;;;;;4960018;28;20062;-87
2022/03/17 08:08:50;;;;;;;10.15;2.17;;;;;;;;;;4976390;28;20054;-88
2022/03/17 08:11:16;;;;;;;7.88;1.67;;;;;;;;;;4958667;28;20046;-88
2022/03/17 08:13:42;;;;;;;10.40;2.22;;;;;;;;;;4976018;28;20046;-87
2022/03/17 08:16:10;;;;;;;12.73;2.13;;;;;;;;;;4975413;28;20049;-87
2022/03/17 08:18:36;;;;;;;8.30;1.65;;;;;;;;;;4976596;28;20058;-89
2022/03/17 08:21:03;;;;;;;7.22;1.50;;;;;;;;;;4976088;28;20042;-88
2022/03/17 08:23:29;;;;;;;9.90;2.00;;;;;;;;;;4960483;28;20443;-88
2022/03/17 08:25:55;;;;;;;8.45;2.20;;;;;;;;;;4976456;28;20050;-88
2022/03/17 08:28:21;;;;;;;9.45;2.03;;;;;;;;;;4975500;28;20043;-88
2022/03/17 08:30:48;;;;;;;10.52;1.92;;;;;;;;;;4971798;28;20042;-87
2022/03/17 08:33:14;;;;;;;11.48;2.10;;;;;;;;;;4974793;28;20046;-88
2022/03/17 08:35:41;;;;;;;9.27;1.95;;;;;;;;;;4976108;28;20039;-88
2022/03/17 08:38:07;;;;;;;9.38;1.80;;;;;;;;;;4981600;28;20042;-88
2022/03/17 08:40:33;;;;;;;10.55;2.42;;;;;;;;;;4975952;28;20512;-87
2022/03/17 08:42:59;;;;;;;13.32;2.33;;;;;;;;;;4958180;28;20073;-87
2022/03/17 08:50:54;;;;;;;8.02;2.00;;;;;;;;;;4975103;28;20499;-87
2022/03/17 08:53:21;;;;;;;10.02;1.67;;;;;;;;;;4958699;28;20046;-88
2022/03/17 08:55:47;;;;;;;9.73;1.90;;;;;;;;;;4958724;28;20046;-89
2022/03/17 08:58:13;;;;;;;8.25;1.75;;;;;;;;;;4975362;28;20105;-89
2022/03/17 09:00:40;;;;;;;8.63;1.60;;;;;;;;;;4959351;28;20492;-89
2022/03/17 09:03:07;;;;;;;11.82;2.30;;;;;;;;;;4973520;28;20070;-89
2022/03/17 09:05:35;;;;;;;9.10;2.28;;;;;;;;;;4965250;28;20055;-89
2022/03/17 09:08:01;;;;;;;8.52;2.10;;;;;;;;;;4960897;28;20036;-89
2022/03/17 09:10:28;;;;;;;13.85;1.98;;;;;;;;;;4965079;28;20043;-88
2022/03/17 09:12:57;;;;;;;10.10;2.03;;;;;;;;;;4956164;28;20490;-87
2022/03/17 09:15:30;;;;;;;9.32;1.80;;;;;;;;;;4972626;28;20377;-88
2022/03/17 09:17:56;;;;;;;11.35;2.30;;;;;;;;;;4972886;28;20110;-89
2022/03/17 09:20:22;;;;;;;9.73;1.90;;;;;;;;;;4945510;28;20043;-89
2022/03/17 09:22:52;;;;;;;9.70;1.90;;;;;;;;;;4954320;29;20402;-88
2022/03/17 09:25:23;;;;;;;12.43;2.30;;;;;;;;;;4969624;28;20069;-89
2022/03/17 09:27:49;;;;;;;8.70;1.92;;;;;;;;;;4981381;28;20050;-88
2022/03/17 09:30:15;;;;;;;9.82;1.70;;;;;;;;;;4970601;28;20050;-88
2022/03/17 09:32:41;;;;;;;11.65;1.92;;;;;;;;;;4971175;28;20053;-87
2022/03/17 09:35:08;;;;;;;14.10;2.65;;;;;;;;;;4974772;28;20047;-89
2022/03/17 09:37:33;;;;;;;13.13;2.47;;;;;;;;;;4949471;28;20138;-88
2022/03/17 09:39:59;;;;;;;11.68;2.63;;;;;;;;;;4971535;28;20490;-88
2022/03/17 09:42:25;;;;;;;9.88;1.85;;;;;;;;;;4962913;28;20630;-87
2022/03/17 09:44:53;;;;;;;9.25;1.83;;;;;;;;;;4969981;28;20061;-88
2022/03/17 09:47:19;;;;;;;10.38;2.28;;;;;;;;;;4964097;28;20444;-88
2022/03/17 09:49:49;;;;;;;10.82;1.85;;;;;;;;;;4974726;28;20054;-88
2022/03/17 09:52:16;;;;;;;9.88;1.75;;;;;;;;;;4955731;29;20129;-87
2022/03/17 09:54:42;;;;;;;11.63;2.45;;;;;;;;;;4939613;29;20478;-88
2022/03/17 09:57:08;;;;;;;12.02;2.20;;;;;;;;;;4955416;29;20050;-88
2022/03/17 09:59:34;;;;;;;9.18;1.90;;;;;;;;;;4955531;29;20039;-87
2022/03/17 10:02:01;;;;;;;9.48;1.50;;;;;;;;;;4955574;29;20126;-88
2022/03/17 10:04:37;;;;;;;12.75;2.35;;;;;;;;;;4955284;29;20046;-88
2022/03/17 10:07:03;;;;;;;8.70;1.88;;;;;;;;;;4939107;29;20401;-88
2022/03/17 10:09:30;;;;;;;7.72;1.95;;;;;;;;;;4955136;29;20114;-88
2022/03/17 10:12:06;;;;;;;10.35;2.00;;;;;;;;;;4949277;28;20366;-88
2022/03/17 10:14:39;;;;;;;9.07;2.10;;;;;;;;;;4963909;28;20051;-88
2022/03/17 10:17:06;;;;;;;12.65;1.98;;;;;;;;;;4970799;28;20046;-88
2022/03/17 10:19:32;;;;;;;9.70;1.92;;;;;;;;;;4958307;28;20042;-87
2022/03/17 10:22:14;;;;;;;10.88;1.92;;;;;;;;;;4974188;28;20045;-88
2022/03/17 10:24:52;;;;;;;6.80;1.50;;;;;;;;;;4957831;28;20502;-88
2022/03/17 10:27:36;;;;;;;6.45;1.80;;;;;;;;;;4962235;28;20384;-89
2022/03/17 10:30:03;;;;;;;7.65;1.45;;;;;;;;;;4974854;28;20054;-88
2022/03/17 10:32:29;;;;;;;5.25;1.67;;;;;;;;;;4970160;28;20046;-88
2022/03/17 10:34:56;;;;;;;6.30;1.60;;;;;;;;;;4957881;28;20043;-88
2022/03/17 10:37:23;;;;;;;6.15;1.10;;;;;;;;;;4957991;28;20129;-88
2022/03/17 10:39:50;;;;;;;8.18;2.22;;;;;;;;;;4973552;28;20141;-87
2022/03/17 10:42:20;;;;;;;7.55;2.33;;;;;;;;;;4973698;28;20109;-88
2022/03/17 10:45:05;;;;;;;9.40;1.45;;;;;;;;;;4973842;28;20106;-87
2022/03/17 10:47:36;;;;;;;9.55;1.50;;;;;;;;;;4962631;28;20064;-86
2022/03/17 10:50:07;;;;;;;6.90;1.33;;;;;;;;;;4966817;28;20046;-86
2022/03/17 10:53:02;;;;;;;8.23;1.60;;;;;;;;;;4965301;28;20055;-87
2022/03/17 10:55:30;;;;;;;7.65;1.30;;;;;;;;;;4956695;28;20055;-87
2022/03/17 10:57:58;;;;;;;8.23;1.83;;;;;;;;;;4967134;28;20047;-86
2022/03/17 11:00:28;;;;;;;12.10;1.40;;;;;;;;;;4968533;28;20038;-87
2022/03/17 11:02:58;;;;;;;8.73;2.05;;;;;;;;;;4973534;28;20116;-87
2022/03/17 11:05:27;;;;;;;6.88;1.20;;;;;;;;;;4970982;28;20145;-88
2022/03/17 11:07:54;;;;;;;7.38;1.58;;;;;;;;;;4949851;28;20038;-88
2022/03/17 11:10:22;;;;;;;9.57;1.67;;;;;;;;;;4964438;28;20165;-86
2022/03/17 11:12:49;;;;;;;5.75;1.13;;;;;;;;;;4976913;28;20058;-86
2022/03/17 11:15:15;;;;;;;6.35;1.95;;;;;;;;;;4970404;28;20077;-87
2022/03/17 11:17:46;;;;;;;6.88;1.77;;;;;;;;;;4988694;28;20151;-88
2022/03/17 11:20:12;;;;;;;9.13;1.45;;;;;;;;;;4962467;28;20061;-88
2022/03/17 11:22:39;;;;;;;9.25;2.17;;;;;;;;;;4944114;28;20042;-87
2022/03/17 11:25:18;;;;;;;7.88;1.90;;;;;;;;;;4960732;28;20043;-88
2022/03/17 11:27:47;;;;;;;7.35;2.00;;;;;;;;;;4976845;28;20137;-87
2022/03/17 11:30:16;;;;;;;10.13;2.10;;;;;;;;;;4976622;28;20050;-87
2022/03/17 11:32:56;;;;;;;10.32;2.22;;;;;;;;;;4976329;28;20088;-88
2022/03/17 11:35:23;;;;;;;7.75;2.10;;;;;;;;;;4976361;28;20511;-88
2022/03/17 11:37:49;;;;;;;9.48;1.98;;;;;;;;;;4975145;28;20500;-88
2022/03/17 11:40:16;;;;;;;9.63;1.95;;;;;;;;;;4976548;28;20388;-87
2022/03/17 11:42:52;;;;;;;11.02;1.83;;;;;;;;;;4955221;28;20093;-85
2022/03/17 11:45:19;;;;;;;11.90;2.10;;;;;;;;;;4975865;28;20043;-87
2022/03/17 11:47:54;;;;;;;7.20;1.83;;;;;;;;;;4960290;28;20046;-87
2022/03/17 11:50:23;;;;;;;8.07;1.65;;;;;;;;;;4976263;28;20392;-87
2022/03/17 11:52:52;;;;;;;8.77;1.90;;;;;;;;;;4975914;28;20053;-86
2022/03/17 11:55:34;;;;;;;8.35;1.80;;;;;;;;;;4976102;28;20492;-87
2022/03/17 11:58:19;;;;;;;6.95;1.48;;;;;;;;;;4976219;28;20042;-87
2022/03/17 12:00:51;;;;;;;8.00;1.70;;;;;;;;;;4955027;28;20108;-87
2022/03/17 12:03:25;;;;;;;10.45;1.65;;;;;;;;;;4976534;28;20129;-87
2022/03/17 12:06:10;;;;;;;10.05;1.75;;;;;;;;;;4958556;28;20701;-87
2022/03/17 12:08:41;;;;;;;8.63;1.83;;;;;;;;;;4976340;28;20054;-88
2022/03/17 12:11:13;;;;;;;9.88;2.25;;;;;;;;;;4967908;28;20043;-87
2022/03/17 12:13:39;;;;;;;8.82;1.80;;;;;;;;;;4975457;28;20057;-86
2022/03/17 12:16:05;;;;;;;9.05;1.73;;;;;;;;;;4976320;28;20075;-86
2022/03/17 12:18:51;;;;;;;8.68;1.95;;;;;;;;;;4972567;28;20039;-86
2022/03/17 12:21:17;;;;;;;9.10;1.92;;;;;;;;;;4958107;28;20038;-85
2022/03/17 12:23:47;;;;;;;10.27;2.38;;;;;;;;;;4975293;28;20053;-87
2022/03/17 12:26:13;;;;;;;12.57;2.22;;;;;;;;;;4960047;28;20043;-87
2022/03/17 12:28:44;;;;;;;8.57;1.83;;;;;;;;;;4985167;28;20090;-87
2022/03/17 12:31:10;;;;;;;7.03;2.00;;;;;;;;;;4960032;28;20034;-87
2022/03/17 12:33:38;;;;;;;7.22;1.55;;;;;;;;;;4963012;28;20039;-87
2022/03/17 12:36:05;;;;;;;9.68;2.20;;;;;;;;;;4959174;28;20060;-87
2022/03/17 12:38:32;;;;;;;10.13;2.13;;;;;;;;;;4976299;28;20103;-88
2022/03/17 12:41:00;;;;;;;4.97;1.60;;;;;;;;;;4976337;28;20082;-88
2022/03/17 12:43:26;;;;;;;7.65;1.90;;;;;;;;;;4976247;28;20043;-88
2022/03/17 12:45:52;;;;;;;7.63;1.92;;;;;;;;;;4975973;28;20047;-88
2022/03/17 12:48:19;;;;;;;13.15;2.60;;;;;;;;;;4975561;28;20133;-87
2022/03/17 12:50:45;;;;;;;8.20;1.90;;;;;;;;;;4975543;28;20046;-88
2022/03/17 12:53:11;;;;;;;8.07;2.08;;;;;;;;;;4975288;28;20481;-88
2022/03/17 12:55:38;;;;;;;8.20;1.63;;;;;;;;;;4965810;28;20054;-87
2022/03/17 12:58:04;;;;;;;6.97;1.75;;;;;;;;;;4975408;28;20400;-87
2022/03/17 13:00:30;;;;;;;6.72;1.73;;;;;;;;;;4974696;28;20043;-86
2022/03/17 13:02:58;;;;;;;5.15;1.50;;;;;;;;;;4975661;28;20043;-86
2022/03/17 13:08:10;;;;;;;9.60;1.70;;;;;;;;;;4979550;28;20134;-87
2022/03/17 13:16:06;;;;;;;9.27;2.20;;;;;;;;;;4979945;28;20042;-86
2022/03/17 13:18:59;;;;;;;7.90;1.73;;;;;;;;;;4978411;28;20072;-87
2022/03/17 13:21:25;;;;;;;;;;;;;;;;;;4977482;23;20114;-76
2022/03/17 13:23:51;;;;;;;5.90;1.20;;;;;;;;;;4952936;28;20055;-76
2022/03/17 13:26:21;;;;;;;7.82;1.33;;;;;;;;;;4952222;28;20040;-76
2022/03/17 13:29:00;;;;;;;5.93;1.48;;;;;;;;;;4952774;28;20091;-76
2022/03/17 13:31:35;;;;;;;7.85;1.33;;;;;;;;;;4956381;28;20065;-76
2022/03/17 13:34:01;;;;;;;9.35;1.45;;;;;;;;;;4952009;28;20540;-76
2022/03/17 13:36:45;;;;;;;6.95;1.60;;;;;;;;;;4952392;28;20086;-76
2022/03/17 13:39:11;;;;;;;9.90;1.70;;;;;;;;;;4954914;28;20180;-76
2022/03/17 13:41:37;;;;;;;9.18;1.77;;;;;;;;;;4955517;28;20042;-76
2022/03/17 13:44:04;;;;;;;8.25;1.77;;;;;;;;;;4944919;28;20043;-76
2022/03/17 13:46:38;;;;;;;7.55;1.83;;;;;;;;;;4936152;29;20400;-76
2022/03/17 13:49:14;;;;;;;7.65;2.05;;;;;;;;;;4953349;28;20481;-76
2022/03/17 13:51:40;;;;;;;8.10;1.73;;;;;;;;;;4950447;28;20058;-76
2022/03/17 13:54:07;;;;;;;9.85;1.60;;;;;;;;;;4937190;28;20062;-76
2022/03/17 13:56:35;;;;;;;9.02;2.15;;;;;;;;;;4960050;28;20122;-76
2022/03/17 13:59:01;;;;;;;8.63;1.95;;;;;;;;;;4929867;29;20035;-76
2022/03/17 14:01:27;;;;;;;8.30;1.55;;;;;;;;;;4955699;28;20449;-76
2022/03/17 14:03:57;;;;;;;5.75;1.23;;;;;;;;;;4955307;28;20081;-76
2022/03/17 14:06:24;;;;;;;7.80;1.65;;;;;;;;;;4954721;28;20101;-76
2022/03/17 14:08:50;;;;;;;4.85;1.50;;;;;;;;;;4944405;29;20051;-76
2022/03/17 14:11:17;;;;;;;6.57;1.38;;;;;;;;;;4930781;28;20043;-76
2022/03/17 14:13:45;;;;;;;8.15;1.00;;;;;;;;;;4939748;29;20401;-76
2022/03/17 14:16:12;;;;;;;5.38;1.30;;;;;;;;;;4961941;28;20043;-76
2022/03/17 14:18:39;;;;;;;7.43;1.50;;;;;;;;;;4936403;29;20046;-76
2022/03/17 14:21:07;;;;;;;5.00;1.17;;;;;;;;;;4947245;28;20043;-76
2022/03/17 14:26:18;;;;;;;7.82;1.42;;;;;;;;;;4948512;28;20401;-76
2022/03/17 14:28:44;;;;;;;6.95;1.50;;;;;;;;;;4951649;28;20039;-76
2022/03/17 14:31:12;;;;;;;6.72;1.52;;;;;;;;;;4955485;28;20501;-76
2022/03/17 14:33:38;;;;;;;7.07;1.60;;;;;;;;;;4955779;28;20038;-76
2022/03/17 14:36:10;;;;;;;7.20;1.75;;;;;;;;;;4935560;28;20039;-76
2022/03/17 14:38:36;;;;;;;6.80;1.70;;;;;;;;;;4932435;29;20106;-76
2022/03/17 14:41:02;;;;;;;5.68;1.17;;;;;;;;;;4953179;28;20486;-76
2022/03/17 14:43:29;;;;;;;8.02;1.75;;;;;;;;;;4955164;28;20054;-76
2022/03/17 14:45:55;;;;;;;7.28;1.60;;;;;;;;;;4950814;28;20087;-76
2022/03/17 14:48:21;;;;;;;11.05;2.17;;;;;;;;;;4949942;28;20051;-76
2022/03/17 14:50:47;;;;;;;9.13;1.73;;;;;;;;;;4953901;28;20433;-76
2022/03/17 14:53:13;;;;;;;5.65;1.20;;;;;;;;;;4945627;28;20082;-76
2022/03/17 14:55:39;;;;;;;5.82;1.35;;;;;;;;;;4946517;29;20514;-76
2022/03/17 14:58:05;;;;;;;6.18;1.70;;;;;;;;;;4948688;29;20094;-76
2022/03/17 15:00:31;;;;;;;6.65;1.38;;;;;;;;;;4951444;29;20053;-76
2022/03/17 15:02:57;;;;;;;6.68;1.77;;;;;;;;;;4949029;28;20046;-76